createdAt,value
2019-05-10T00:01:29.906Z,58.70
2019-05-10T00:03:02.332Z,58.70
2019-05-10T00:04:34.921Z,58.70
2019-05-10T00:06:07.331Z,58.80
2019-05-10T00:07:39.728Z,58.80
2019-05-10T00:09:12.205Z,58.90
2019-05-10T00:10:44.867Z,58.90
2019-05-10T00:12:17.207Z,58.90
2019-05-10T00:13:49.718Z,59.00
2019-05-10T00:15:22.485Z,58.90
2019-05-10T00:16:54.898Z,59.00
2019-05-10T00:18:27.388Z,59.00
2019-05-10T00:19:59.799Z,59.00
2019-05-10T00:21:32.197Z,59.10
2019-05-10T00:23:04.668Z,59.10
2019-05-10T00:24:37.032Z,59.10
2019-05-10T00:26:09.434Z,59.20
2019-05-10T00:27:41.827Z,59.30
2019-05-10T00:29:14.327Z,59.30
2019-05-10T00:30:46.653Z,59.40
2019-05-10T00:32:19.066Z,59.40
2019-05-10T00:33:51.815Z,59.40
2019-05-10T00:35:24.272Z,59.40
2019-05-10T00:36:56.676Z,59.40
2019-05-10T00:38:29.004Z,59.40
2019-05-10T00:40:01.357Z,59.40
2019-05-10T00:41:33.755Z,59.50
2019-05-10T00:43:06.091Z,59.40
2019-05-10T00:44:38.440Z,59.50
2019-05-10T00:46:10.855Z,59.50
2019-05-10T00:47:43.260Z,59.50
2019-05-10T00:49:15.596Z,59.50
2019-05-10T00:50:47.949Z,59.40
2019-05-10T00:52:20.353Z,59.40
2019-05-10T00:53:52.851Z,60.20
2019-05-10T00:55:25.266Z,59.50
2019-05-10T00:56:57.612Z,59.50
2019-05-10T00:58:29.949Z,59.60
2019-05-10T01:00:02.449Z,59.70
2019-05-10T01:01:34.926Z,59.70
2019-05-10T01:03:07.248Z,59.70
2019-05-10T01:04:39.670Z,59.80
2019-05-10T01:06:12.152Z,59.70
2019-05-10T01:07:44.483Z,59.70
2019-05-10T01:09:16.955Z,59.70
2019-05-10T01:10:49.390Z,59.70
2019-05-10T01:12:21.800Z,59.70
2019-05-10T01:13:54.305Z,59.60
2019-05-10T01:15:26.782Z,59.70
2019-05-10T01:16:59.125Z,59.70
2019-05-10T01:18:31.544Z,59.60
2019-05-10T01:20:03.992Z,59.70
2019-05-10T01:21:36.338Z,59.70
2019-05-10T01:23:08.780Z,59.60
2019-05-10T01:24:41.590Z,59.70
2019-05-10T01:26:14.010Z,59.70
2019-05-10T01:27:46.512Z,59.80
2019-05-10T01:29:18.991Z,59.80
2019-05-10T01:30:51.484Z,59.90
2019-05-10T01:32:24.283Z,59.90
2019-05-10T01:33:56.616Z,59.80
2019-05-10T01:35:29.031Z,59.90
2019-05-10T01:37:01.452Z,59.90
2019-05-10T01:38:33.852Z,60.00
2019-05-10T01:40:06.188Z,59.90
2019-05-10T01:41:38.630Z,59.90
2019-05-10T01:43:10.989Z,59.90
2019-05-10T01:44:43.324Z,60.00
2019-05-10T01:46:15.761Z,60.00
2019-05-10T01:47:48.092Z,60.10
2019-05-10T01:49:20.415Z,60.20
2019-05-10T01:50:53.011Z,60.10
2019-05-10T01:52:25.531Z,60.20
2019-05-10T01:53:57.888Z,60.20
2019-05-10T01:55:30.396Z,60.20
2019-05-10T01:57:02.828Z,60.20
2019-05-10T01:58:35.161Z,60.30
2019-05-10T02:00:07.565Z,60.30
2019-05-10T02:01:39.917Z,60.20
2019-05-10T02:03:12.247Z,60.30
2019-05-10T02:04:44.644Z,60.30
2019-05-10T02:06:16.999Z,60.30
2019-05-10T02:07:49.466Z,60.40
2019-05-10T02:09:21.824Z,60.30
2019-05-10T02:10:54.294Z,60.40
2019-05-10T02:12:26.716Z,60.30
2019-05-10T02:13:59.124Z,60.30
2019-05-10T02:15:31.592Z,60.50
2019-05-10T02:17:03.942Z,60.30
2019-05-10T02:18:36.415Z,60.40
2019-05-10T02:20:09.391Z,60.50
2019-05-10T02:21:41.997Z,60.50
2019-05-10T02:23:14.420Z,60.60
2019-05-10T02:24:47.122Z,60.50
2019-05-10T02:26:19.523Z,60.60
2019-05-10T02:27:51.866Z,60.80
2019-05-10T02:29:24.640Z,60.80
2019-05-10T02:30:56.977Z,60.90
2019-05-10T02:32:29.478Z,61.00
2019-05-10T02:34:01.977Z,61.10
2019-05-10T02:35:34.387Z,61.10
2019-05-10T02:37:06.856Z,61.20
2019-05-10T02:38:39.576Z,61.20
2019-05-10T02:40:11.904Z,61.30
2019-05-10T02:41:44.308Z,61.30
2019-05-10T02:43:17.027Z,61.40
2019-05-10T02:44:49.429Z,61.40
2019-05-10T02:46:21.909Z,61.50
2019-05-10T02:47:54.397Z,61.40
2019-05-10T02:49:26.816Z,61.50
2019-05-10T02:50:59.425Z,61.60
2019-05-10T02:52:31.832Z,61.60
2019-05-10T02:54:04.487Z,61.80
2019-05-10T02:55:36.896Z,61.80
2019-05-10T02:57:09.398Z,61.80
2019-05-10T02:58:41.827Z,61.80
2019-05-10T03:00:14.334Z,62.00
2019-05-10T03:01:46.668Z,62.00
2019-05-10T03:03:19.015Z,62.00
2019-05-10T03:04:51.361Z,62.10
2019-05-10T03:06:24.332Z,62.10
2019-05-10T03:07:56.663Z,62.10
2019-05-10T03:09:29.014Z,62.10
2019-05-10T03:11:01.492Z,62.10
2019-05-10T03:12:33.845Z,62.10
2019-05-10T03:14:06.192Z,63.00
2019-05-10T03:15:38.591Z,62.20
2019-05-10T03:17:10.934Z,62.20
2019-05-10T03:18:44.581Z,62.20
2019-05-10T03:20:17.360Z,62.10
2019-05-10T03:21:49.693Z,62.30
2019-05-10T03:23:22.179Z,62.30
2019-05-10T03:24:54.934Z,62.30
2019-05-10T03:26:27.328Z,62.30
2019-05-10T03:27:59.908Z,62.30
2019-05-10T03:29:32.366Z,62.30
2019-05-10T03:31:04.845Z,62.20
2019-05-10T03:32:37.609Z,62.30
2019-05-10T03:34:10.040Z,62.30
2019-05-10T03:35:43.385Z,62.20
2019-05-10T03:37:15.865Z,62.30
2019-05-10T03:38:48.364Z,62.30
2019-05-10T03:40:20.693Z,62.30
2019-05-10T03:41:53.308Z,62.30
2019-05-10T03:43:25.921Z,62.30
2019-05-10T03:44:58.352Z,62.40
2019-05-10T03:46:30.757Z,62.30
2019-05-10T03:48:03.240Z,62.40
2019-05-10T03:49:35.670Z,62.30
2019-05-10T03:51:08.087Z,62.40
2019-05-10T03:52:40.647Z,62.30
2019-05-10T03:54:12.994Z,62.40
2019-05-10T03:55:45.419Z,62.40
2019-05-10T03:57:17.906Z,62.30
2019-05-10T03:58:50.332Z,62.30
2019-05-10T04:00:22.811Z,62.30
2019-05-10T04:01:55.316Z,62.30
2019-05-10T04:03:27.723Z,62.30
2019-05-10T04:05:00.224Z,62.40
2019-05-10T04:06:32.631Z,62.40
2019-05-10T04:08:05.045Z,62.40
2019-05-10T04:09:37.450Z,62.40
2019-05-10T04:11:09.954Z,62.30
2019-05-10T04:12:42.293Z,62.40
2019-05-10T04:14:14.893Z,62.60
2019-05-10T04:15:52.198Z,62.40
2019-05-10T04:17:24.534Z,62.40
2019-05-10T04:18:57.024Z,62.40
2019-05-10T04:20:29.516Z,62.50
2019-05-10T04:22:01.936Z,62.60
2019-05-10T04:23:34.409Z,62.60
2019-05-10T04:25:06.907Z,62.60
2019-05-10T04:26:39.325Z,62.60
2019-05-10T04:28:11.796Z,62.80
2019-05-10T04:29:44.268Z,62.70
2019-05-10T04:31:16.695Z,62.70
2019-05-10T04:32:49.173Z,62.70
2019-05-10T04:34:21.672Z,62.80
2019-05-10T04:35:54.166Z,62.80
2019-05-10T04:37:26.573Z,62.80
2019-05-10T04:38:58.971Z,62.80
2019-05-10T04:40:31.323Z,62.70
2019-05-10T04:42:03.752Z,62.80
2019-05-10T04:43:36.152Z,62.80
2019-05-10T04:45:08.561Z,62.90
2019-05-10T04:46:40.916Z,62.80
2019-05-10T04:48:13.395Z,62.90
2019-05-10T04:49:45.730Z,62.90
2019-05-10T04:51:18.224Z,63.00
2019-05-10T04:52:50.560Z,62.90
2019-05-10T04:54:22.955Z,62.90
2019-05-10T04:55:55.359Z,62.90
2019-05-10T04:57:27.853Z,62.90
2019-05-10T04:59:00.261Z,62.90
2019-05-10T05:00:32.651Z,62.90
2019-05-10T05:02:05.187Z,62.80
2019-05-10T05:03:37.588Z,62.80
2019-05-10T05:05:10.033Z,63.10
2019-05-10T05:06:42.449Z,62.70
2019-05-10T05:08:14.981Z,62.80
2019-05-10T05:09:47.428Z,62.70
2019-05-10T05:11:19.829Z,62.70
2019-05-10T05:12:52.271Z,62.80
2019-05-10T05:14:24.739Z,62.70
2019-05-10T05:15:57.141Z,62.70
2019-05-10T05:17:29.560Z,62.70
2019-05-10T05:19:01.967Z,62.70
2019-05-10T05:20:34.433Z,62.60
2019-05-10T05:22:06.783Z,62.60
2019-05-10T05:23:39.178Z,62.60
2019-05-10T05:25:11.586Z,62.50
2019-05-10T05:26:43.916Z,62.40
2019-05-10T05:28:18.337Z,62.40
2019-05-10T05:29:50.434Z,62.30
2019-05-10T05:31:22.769Z,62.30
2019-05-10T05:32:57.063Z,62.20
2019-05-10T05:34:29.364Z,62.20
2019-05-10T05:36:02.470Z,62.20
2019-05-10T05:37:35.192Z,62.10
2019-05-10T05:39:07.599Z,62.10
2019-05-10T05:40:40.025Z,62.00
2019-05-10T05:42:12.521Z,62.10
2019-05-10T05:43:46.474Z,62.00
2019-05-10T05:45:19.322Z,62.00
2019-05-10T05:46:51.787Z,62.00
2019-05-10T05:48:38.452Z,61.90
2019-05-10T05:49:58.289Z,61.80
2019-05-10T05:51:30.716Z,61.80
2019-05-10T05:53:03.137Z,61.70
2019-05-10T05:54:35.544Z,61.70
2019-05-10T05:56:12.927Z,61.60
2019-05-10T05:57:41.991Z,61.60
2019-05-10T05:59:17.373Z,61.40
2019-05-10T06:00:48.448Z,61.50
2019-05-10T06:02:20.916Z,61.50
2019-05-10T06:03:53.269Z,61.40
2019-05-10T06:05:34.114Z,61.70
2019-05-10T06:07:00.595Z,61.40
2019-05-10T06:08:33.159Z,61.50
2019-05-10T06:10:10.420Z,61.40
2019-05-10T06:11:39.592Z,61.40
2019-05-10T06:13:12.015Z,61.50
2019-05-10T06:14:49.630Z,61.40
2019-05-10T06:16:21.973Z,61.50
2019-05-10T06:17:57.305Z,61.50
2019-05-10T06:19:29.467Z,61.30
2019-05-10T06:21:00.780Z,61.40
2019-05-10T06:22:38.234Z,61.20
2019-05-10T06:24:13.171Z,61.20
2019-05-10T06:25:42.747Z,61.30
2019-05-10T06:27:15.440Z,61.50
2019-05-10T06:29:04.469Z,61.40
2019-05-10T06:30:21.917Z,61.50
2019-05-10T06:31:54.244Z,61.50
2019-05-10T06:33:26.714Z,61.40
2019-05-10T06:34:59.156Z,61.40
2019-05-10T06:36:31.953Z,61.40
2019-05-10T06:38:04.645Z,61.50
2019-05-10T06:39:37.140Z,61.40
2019-05-10T06:41:10.190Z,61.30
2019-05-10T06:42:43.636Z,61.10
2019-05-10T06:44:15.997Z,61.10
2019-05-10T06:45:52.310Z,61.10
2019-05-10T06:47:22.536Z,61.10
2019-05-10T06:48:55.002Z,61.10
2019-05-10T06:50:30.058Z,61.00
2019-05-10T06:52:01.447Z,60.90
2019-05-10T06:53:33.847Z,60.90
2019-05-10T06:55:06.202Z,60.80
2019-05-10T06:56:38.687Z,60.80
2019-05-10T06:58:11.438Z,60.80
2019-05-10T06:59:43.898Z,60.70
2019-05-10T07:01:16.305Z,60.60
2019-05-10T07:02:49.104Z,60.70
2019-05-10T07:04:21.567Z,60.70
2019-05-10T07:05:54.088Z,60.80
2019-05-10T07:07:43.231Z,60.80
2019-05-10T07:09:00.611Z,60.70
2019-05-10T07:10:33.928Z,60.60
2019-05-10T07:12:09.389Z,60.80
2019-05-10T07:13:46.548Z,60.70
2019-05-10T07:15:14.899Z,61.50
2019-05-10T07:16:47.379Z,60.60
2019-05-10T07:18:22.722Z,60.60
2019-05-10T07:19:55.298Z,60.70
2019-05-10T07:21:27.884Z,60.70
2019-05-10T07:23:05.862Z,60.80
2019-05-10T07:24:34.331Z,60.80
2019-05-10T07:26:09.748Z,61.70
2019-05-10T07:27:40.889Z,60.90
2019-05-10T07:29:29.159Z,60.70
2019-05-10T07:30:48.269Z,61.60
2019-05-10T07:32:22.062Z,60.80
2019-05-10T07:33:54.776Z,60.80
2019-05-10T07:35:31.076Z,60.70
2019-05-10T07:37:01.946Z,60.60
2019-05-10T07:38:34.635Z,60.60
2019-05-10T07:40:07.974Z,60.50
2019-05-10T07:41:41.420Z,60.60
2019-05-10T07:43:24.717Z,60.80
2019-05-10T07:44:57.069Z,60.70
2019-05-10T07:46:30.681Z,60.80
2019-05-10T07:48:08.134Z,60.80
2019-05-10T07:49:38.160Z,60.80
2019-05-10T07:51:11.444Z,60.80
2019-05-10T07:52:45.723Z,60.80
2019-05-10T07:54:19.449Z,61.70
2019-05-10T07:55:52.601Z,60.90
2019-05-10T07:57:27.051Z,60.90
2019-05-10T07:59:00.835Z,61.50
2019-05-10T08:00:38.265Z,60.80
2019-05-10T08:02:13.071Z,60.80
2019-05-10T08:03:48.267Z,60.80
2019-05-10T08:05:18.468Z,60.80
2019-05-10T08:06:51.946Z,60.80
2019-05-10T08:08:24.822Z,60.80
2019-05-10T08:09:59.443Z,60.90
2019-05-10T08:11:31.710Z,60.80
2019-05-10T08:13:04.038Z,60.80
2019-05-10T08:14:36.562Z,60.70
2019-05-10T08:16:11.904Z,60.50
2019-05-10T08:17:45.568Z,60.40
2019-05-10T08:19:17.416Z,60.30
2019-05-10T08:20:56.640Z,60.20
2019-05-10T08:22:23.904Z,60.20
2019-05-10T08:23:58.941Z,60.20
2019-05-10T08:25:39.622Z,60.80
2019-05-10T08:27:11.244Z,59.90
2019-05-10T08:28:43.807Z,59.80
2019-05-10T08:30:25.410Z,59.70
2019-05-10T08:31:52.856Z,59.50
2019-05-10T08:33:22.891Z,59.50
2019-05-10T08:34:56.090Z,59.50
2019-05-10T08:36:28.593Z,59.40
2019-05-10T08:38:02.330Z,59.30
2019-05-10T08:39:45.099Z,59.00
2019-05-10T08:41:14.765Z,58.70
2019-05-10T08:42:48.711Z,58.50
2019-05-10T08:44:20.973Z,58.20
2019-05-10T08:45:52.434Z,58.10
2019-05-10T08:47:27.776Z,58.00
2019-05-10T08:49:01.923Z,57.80
2019-05-10T08:50:48.828Z,57.70
2019-05-10T08:52:07.452Z,57.70
2019-05-10T08:53:42.085Z,57.50
2019-05-10T08:55:13.905Z,57.40
2019-05-10T08:58:55.028Z,57.30
2019-05-10T09:00:41.475Z,57.10
2019-05-10T09:02:02.198Z,57.00
2019-05-10T09:03:34.824Z,56.70
2019-05-10T09:05:07.174Z,56.60
2019-05-10T09:06:41.889Z,56.40
2019-05-10T09:08:19.433Z,56.10
2019-05-10T09:09:50.154Z,56.00
2019-05-10T09:11:23.232Z,55.70
2019-05-10T09:12:58.052Z,55.50
2019-05-10T09:14:32.555Z,55.40
2019-05-10T09:16:04.010Z,55.20
2019-05-10T09:17:36.507Z,55.00
2019-05-10T09:19:08.984Z,54.90
2019-05-10T09:20:42.090Z,54.90
2019-05-10T09:22:14.868Z,54.70
2019-05-10T09:23:52.813Z,54.60
2019-05-10T09:25:29.167Z,54.50
2019-05-10T09:26:57.150Z,54.40
2019-05-10T09:28:32.097Z,54.30
2019-05-10T09:30:08.116Z,54.10
2019-05-10T09:31:45.916Z,54.00
2019-05-10T09:33:14.678Z,54.10
2019-05-10T09:34:47.207Z,53.90
2019-05-10T09:36:23.117Z,53.90
2019-05-10T09:37:58.407Z,53.70
2019-05-10T09:39:27.921Z,53.50
2019-05-10T09:41:02.467Z,53.40
2019-05-10T09:42:39.933Z,53.20
2019-05-10T09:44:08.960Z,53.00
2019-05-10T09:45:42.340Z,52.90
2019-05-10T09:47:15.129Z,53.40
2019-05-10T09:48:47.667Z,52.50
2019-05-10T09:50:22.777Z,52.60
2019-05-10T09:51:54.999Z,52.30
2019-05-10T09:53:30.467Z,52.10
2019-05-10T09:55:04.095Z,52.10
2019-05-10T09:56:42.049Z,52.10
2019-05-10T09:58:09.759Z,52.00
2019-05-10T09:59:47.014Z,52.10
2019-05-10T10:01:21.782Z,52.10
2019-05-10T10:03:01.616Z,52.20
2019-05-10T10:04:28.267Z,52.30
2019-05-10T10:06:07.297Z,52.40
2019-05-10T10:07:37.235Z,52.40
2019-05-10T10:09:11.203Z,52.70
2019-05-10T10:10:43.490Z,52.90
2019-05-10T10:12:17.574Z,53.20
2019-05-10T10:13:59.277Z,53.40
2019-05-10T10:15:34.270Z,53.60
2019-05-10T10:17:04.385Z,53.90
2019-05-10T10:18:37.245Z,54.20
2019-05-10T10:20:09.721Z,54.40
2019-05-10T10:21:42.264Z,54.60
2019-05-10T10:23:17.165Z,54.80
2019-05-10T10:24:53.837Z,55.60
2019-05-10T10:26:22.940Z,55.20
2019-05-10T10:27:57.426Z,55.30
2019-05-10T10:29:34.084Z,55.40
2019-05-10T10:31:05.362Z,55.40
2019-05-10T10:32:37.773Z,55.50
2019-05-10T10:34:10.194Z,55.50
2019-05-10T10:35:42.632Z,55.60
2019-05-10T10:37:22.133Z,55.60
2019-05-10T10:38:49.796Z,55.70
2019-05-10T10:40:22.555Z,55.70
2019-05-10T10:41:57.137Z,55.70
2019-05-10T10:43:29.197Z,55.70
2019-05-10T10:45:01.751Z,55.80
2019-05-10T10:46:34.811Z,55.80
2019-05-10T10:48:12.621Z,56.30
2019-05-10T10:49:41.335Z,55.90
2019-05-10T10:51:13.822Z,56.00
2019-05-10T10:52:46.351Z,56.00
2019-05-10T10:54:22.397Z,56.10
2019-05-10T10:55:54.447Z,56.20
2019-05-10T10:57:27.896Z,56.20
2019-05-10T10:59:00.447Z,56.20
2019-05-10T11:00:32.848Z,56.20
2019-05-10T11:02:28.994Z,56.30
2019-05-10T11:03:39.316Z,56.20
2019-05-10T11:05:12.049Z,56.20
2019-05-10T11:06:44.431Z,56.30
2019-05-10T11:08:16.778Z,56.30
2019-05-10T11:09:53.706Z,56.40
2019-05-10T11:11:23.380Z,56.30
2019-05-10T11:12:56.280Z,57.00
2019-05-10T11:14:31.965Z,56.40
2019-05-10T11:16:09.705Z,56.40
2019-05-10T11:17:40.535Z,57.30
2019-05-10T11:19:15.462Z,56.40
2019-05-10T11:20:49.508Z,56.50
2019-05-10T11:22:21.514Z,56.50
2019-05-10T11:23:54.095Z,56.60
2019-05-10T11:25:26.424Z,56.60
2019-05-10T11:27:01.034Z,56.60
2019-05-10T11:28:38.624Z,56.60
2019-05-10T11:30:07.180Z,56.60
2019-05-10T11:31:41.412Z,56.60
2019-05-10T11:33:25.988Z,56.60
2019-05-10T11:34:47.910Z,56.60
2019-05-10T11:36:21.167Z,56.60
2019-05-10T11:37:53.744Z,56.80
2019-05-10T11:39:26.955Z,56.90
2019-05-10T11:41:01.751Z,57.10
2019-05-10T11:42:37.355Z,57.10
2019-05-10T11:44:11.313Z,57.10
2019-05-10T11:45:43.996Z,57.10
2019-05-10T11:47:23.921Z,57.20
2019-05-10T11:48:51.024Z,57.20
2019-05-10T11:50:31.429Z,57.30
2019-05-10T11:51:58.874Z,57.40
2019-05-10T11:53:31.941Z,57.40
2019-05-10T11:55:04.443Z,57.40
2019-05-10T11:56:36.867Z,57.30
2019-05-10T11:58:12.970Z,57.30
2019-05-10T11:59:43.235Z,57.20
2019-05-10T12:01:19.277Z,56.80
2019-05-10T12:03:11.174Z,56.60
2019-05-10T12:04:35.631Z,56.30
2019-05-10T12:06:05.260Z,56.10
2019-05-10T12:07:42.687Z,55.80
2019-05-10T12:09:05.900Z,55.70
2019-05-10T12:10:44.876Z,55.60
2019-05-10T12:12:12.561Z,55.50
2019-05-10T12:13:45.124Z,55.30
2019-05-10T12:15:24.786Z,55.10
2019-05-10T12:16:54.538Z,54.80
2019-05-10T12:18:27.072Z,54.60
2019-05-10T12:20:02.462Z,54.40
2019-05-10T12:21:33.709Z,54.10
2019-05-10T12:23:13.130Z,54.00
2019-05-10T12:26:16.068Z,53.90
2019-05-10T12:27:49.892Z,53.80
2019-05-10T12:29:22.470Z,53.80
2019-05-10T12:30:54.800Z,53.70
2019-05-10T12:32:32.540Z,53.60
2019-05-10T12:34:09.103Z,53.60
2019-05-10T12:35:39.824Z,53.40
2019-05-10T12:37:09.414Z,53.20
2019-05-10T12:38:41.784Z,52.90
2019-05-10T12:40:15.323Z,52.60
2019-05-10T12:41:49.970Z,52.20
2019-05-10T12:43:22.156Z,51.90
2019-05-10T12:44:55.861Z,51.60
2019-05-10T12:46:30.509Z,51.20
2019-05-10T12:48:03.049Z,50.90
2019-05-10T12:49:36.471Z,50.50
2019-05-10T12:51:12.666Z,50.30
2019-05-10T12:52:43.670Z,49.70
2019-05-10T12:54:18.594Z,49.90
2019-05-10T12:55:51.488Z,49.70
2019-05-10T12:57:23.908Z,49.40
2019-05-10T12:58:57.745Z,49.30
2019-05-10T13:00:30.318Z,49.20
2019-05-10T13:02:04.522Z,49.30
2019-05-10T13:03:36.929Z,49.20
2019-05-10T13:05:09.335Z,49.10
2019-05-10T13:06:41.711Z,49.20
2019-05-10T13:08:14.132Z,49.20
2019-05-10T13:09:49.819Z,49.00
2019-05-10T13:11:25.444Z,49.10
2019-05-10T13:12:54.663Z,49.00
2019-05-10T13:14:29.159Z,48.80
2019-05-10T13:16:03.679Z,48.40
2019-05-10T13:17:35.406Z,47.70
2019-05-10T13:19:07.825Z,46.80
2019-05-10T13:20:40.288Z,45.40
2019-05-10T13:22:12.625Z,44.30
2019-05-10T13:23:45.050Z,43.20
2019-05-10T13:25:17.449Z,42.00
2019-05-10T13:26:49.851Z,41.50
2019-05-10T13:28:22.220Z,40.00
2019-05-10T13:29:54.628Z,39.00
2019-05-10T13:31:27.032Z,38.00
2019-05-10T13:33:00.375Z,37.00
2019-05-10T13:34:32.940Z,36.10
2019-05-10T13:36:05.331Z,35.00
2019-05-10T13:37:37.746Z,34.50
2019-05-10T13:39:10.110Z,33.40
2019-05-10T13:40:45.723Z,32.80
2019-05-10T13:42:16.556Z,32.40
2019-05-10T13:43:49.270Z,32.10
2019-05-10T13:45:21.810Z,31.70
2019-05-10T13:46:54.308Z,31.40
2019-05-10T13:48:26.957Z,31.20
2019-05-10T13:49:59.456Z,31.00
2019-05-10T13:51:31.862Z,30.30
2019-05-10T13:53:04.286Z,29.70
2019-05-10T13:54:37.960Z,29.10
2019-05-10T13:56:10.420Z,28.70
2019-05-10T13:57:42.758Z,27.90
2019-05-10T13:59:17.778Z,27.40
2019-05-10T14:00:49.389Z,26.90
2019-05-10T14:02:31.939Z,26.80
2019-05-10T14:04:01.209Z,26.70
2019-05-10T14:05:29.936Z,26.50
2019-05-10T14:07:02.336Z,26.00
2019-05-10T14:08:34.742Z,25.80
2019-05-10T14:10:07.165Z,26.00
2019-05-10T14:11:40.522Z,26.10
2019-05-10T14:13:16.657Z,26.50
2019-05-10T14:14:47.731Z,26.90
2019-05-10T14:16:22.396Z,27.50
2019-05-10T14:17:54.160Z,27.90
2019-05-10T14:19:26.714Z,28.50
2019-05-10T14:20:59.167Z,28.80
2019-05-10T14:22:31.577Z,29.10
2019-05-10T14:24:09.018Z,29.50
2019-05-10T14:25:38.948Z,29.70
2019-05-10T14:27:11.600Z,29.70
2019-05-10T14:28:47.411Z,29.80
2019-05-10T14:30:18.186Z,30.10
2019-05-10T14:31:50.617Z,30.50
2019-05-10T14:33:23.075Z,30.60
2019-05-10T14:34:55.587Z,30.80
2019-05-10T14:36:28.009Z,31.00
2019-05-10T14:38:08.229Z,31.30
2019-05-10T14:39:34.714Z,31.60
2019-05-10T14:41:10.859Z,32.00
2019-05-10T14:42:41.276Z,32.20
2019-05-10T14:44:13.760Z,32.70
2019-05-10T14:45:46.335Z,32.90
2019-05-10T14:47:18.747Z,33.30
2019-05-10T14:48:51.091Z,33.60
2019-05-10T14:50:26.143Z,33.80
2019-05-10T14:51:59.395Z,34.00
2019-05-10T14:53:31.696Z,34.00
2019-05-10T14:55:04.104Z,33.90
2019-05-10T14:56:36.513Z,33.80
2019-05-10T14:58:08.919Z,33.70
2019-05-10T14:59:41.248Z,33.20
2019-05-10T15:01:13.683Z,32.80
2019-05-10T15:02:46.163Z,32.50
2019-05-10T15:04:43.655Z,32.00
2019-05-10T15:05:55.562Z,31.80
2019-05-10T15:07:26.792Z,31.80
2019-05-10T15:08:59.119Z,32.00
2019-05-10T15:10:32.958Z,32.20
2019-05-10T15:12:10.107Z,32.40
2019-05-10T15:13:39.991Z,32.60
2019-05-10T15:15:12.463Z,32.90
2019-05-10T15:17:03.607Z,33.10
2019-05-10T15:18:50.312Z,33.60
2019-05-10T15:20:22.733Z,33.90
2019-05-10T15:21:55.199Z,34.00
2019-05-10T15:23:27.626Z,34.00
2019-05-10T15:25:00.103Z,34.00
2019-05-10T15:26:37.528Z,34.20
2019-05-10T15:28:06.724Z,34.20
2019-05-10T15:29:39.327Z,34.40
2019-05-10T15:31:11.786Z,34.50
2019-05-10T15:32:44.179Z,34.60
2019-05-10T15:34:16.653Z,34.30
2019-05-10T15:35:51.970Z,34.30
2019-05-10T15:37:23.156Z,35.00
2019-05-10T15:38:55.583Z,34.00
2019-05-10T15:40:27.982Z,34.00
2019-05-10T15:42:00.985Z,34.20
2019-05-10T15:43:33.656Z,34.40
2019-05-10T15:45:12.093Z,34.60
2019-05-10T15:46:42.335Z,34.80
2019-05-10T15:48:14.346Z,35.00
2019-05-10T15:49:46.783Z,35.30
2019-05-10T15:51:19.113Z,35.60
2019-05-10T15:52:51.617Z,36.00
2019-05-10T15:54:25.901Z,36.40
2019-05-10T15:56:03.799Z,36.80
2019-05-10T15:57:33.073Z,37.10
2019-05-10T15:59:05.496Z,37.50
2019-05-10T16:00:41.317Z,37.80
2019-05-10T16:02:11.954Z,38.30
2019-05-10T16:03:44.378Z,38.80
2019-05-10T16:05:25.897Z,39.30
2019-05-10T16:06:50.899Z,40.30
2019-05-10T16:08:24.105Z,40.90
2019-05-10T16:09:57.343Z,41.20
2019-05-10T16:11:30.195Z,41.60
2019-05-10T16:13:02.594Z,41.90
2019-05-10T16:14:39.116Z,42.20
2019-05-10T16:16:09.039Z,42.40
2019-05-10T16:17:41.431Z,42.60
2019-05-10T16:19:18.598Z,42.90
2019-05-10T16:20:47.956Z,42.90
2019-05-10T16:22:25.318Z,43.00
2019-05-10T16:23:54.387Z,43.10
2019-05-10T16:25:26.815Z,43.20
2019-05-10T16:27:00.163Z,43.20
2019-05-10T16:28:33.264Z,43.20
2019-05-10T16:30:05.758Z,43.30
2019-05-10T16:31:38.146Z,43.50
2019-05-10T16:33:15.721Z,43.70
2019-05-10T16:34:44.924Z,43.70
2019-05-10T16:36:17.427Z,43.80
2019-05-10T16:37:49.759Z,43.70
2019-05-10T16:39:22.168Z,43.80
2019-05-10T16:40:58.728Z,43.70
2019-05-10T16:42:34.590Z,43.70
2019-05-10T16:44:02.799Z,43.60
2019-05-10T16:45:35.291Z,43.60
2019-05-10T16:47:07.623Z,43.70
2019-05-10T16:48:40.064Z,43.80
2019-05-10T16:50:12.467Z,43.80
2019-05-10T16:51:47.929Z,43.90
2019-05-10T16:53:19.296Z,43.90
2019-05-10T16:54:51.627Z,43.90
2019-05-10T16:56:24.056Z,43.80
2019-05-10T16:57:56.468Z,43.80
2019-05-10T16:59:29.694Z,43.60
2019-05-10T17:01:02.823Z,43.70
2019-05-10T17:02:36.596Z,43.60
2019-05-10T17:04:09.294Z,43.70
2019-05-10T17:05:52.629Z,43.70
2019-05-10T17:07:19.014Z,43.20
2019-05-10T17:08:49.768Z,43.80
2019-05-10T17:10:27.033Z,43.60
2019-05-10T17:11:58.944Z,44.40
2019-05-10T17:13:30.273Z,43.40
2019-05-10T17:15:03.272Z,43.30
2019-05-10T17:16:35.886Z,43.20
2019-05-10T17:18:10.533Z,43.20
2019-05-10T17:19:42.336Z,43.10
2019-05-10T17:21:14.816Z,43.10
2019-05-10T17:22:47.262Z,43.10
2019-05-10T17:24:23.922Z,43.10
2019-05-10T17:25:53.795Z,43.00
2019-05-10T17:27:26.127Z,43.00
2019-05-10T17:28:58.490Z,43.00
2019-05-10T17:30:30.916Z,43.10
2019-05-10T17:32:03.388Z,43.20
2019-05-10T17:33:36.623Z,43.20
2019-05-10T17:35:10.304Z,43.50
2019-05-10T17:36:42.736Z,43.50
2019-05-10T17:38:16.297Z,43.50
2019-05-10T17:39:48.943Z,43.70
2019-05-10T17:41:24.836Z,43.70
2019-05-10T17:42:55.392Z,43.70
2019-05-10T17:44:27.795Z,43.70
2019-05-10T17:46:00.198Z,43.90
2019-05-10T17:47:33.737Z,43.80
2019-05-10T17:49:06.321Z,44.00
2019-05-10T17:50:38.651Z,44.30
2019-05-10T17:52:10.992Z,44.60
2019-05-10T17:53:43.411Z,45.00
2019-05-10T17:55:18.444Z,45.60
2019-05-10T17:56:49.903Z,46.00
2019-05-10T17:58:22.238Z,46.30
2019-05-10T17:59:54.783Z,46.70
2019-05-10T18:01:27.156Z,47.00
2019-05-10T18:02:59.557Z,47.30
2019-05-10T18:04:31.912Z,47.50
2019-05-10T18:06:07.215Z,47.90
2019-05-10T18:07:44.187Z,48.00
2019-05-10T18:09:16.681Z,48.20
2019-05-10T18:10:49.023Z,48.50
2019-05-10T18:12:26.606Z,48.70
2019-05-10T18:13:55.536Z,48.90
2019-05-10T18:15:32.766Z,49.10
2019-05-10T18:17:02.716Z,49.30
2019-05-10T18:18:45.110Z,49.50
2019-05-10T18:20:09.245Z,49.50
2019-05-10T18:21:41.671Z,49.70
2019-05-10T18:23:20.108Z,49.80
2019-05-10T18:24:48.207Z,49.80
2019-05-10T18:26:20.688Z,49.90
2019-05-10T18:27:53.102Z,50.00
2019-05-10T18:29:25.538Z,50.20
2019-05-10T18:30:58.331Z,50.30
2019-05-10T18:32:35.343Z,50.40
2019-05-10T18:34:04.842Z,50.50
2019-05-10T18:35:37.421Z,50.70
2019-05-10T18:37:10.219Z,50.70
2019-05-10T18:38:42.550Z,50.90
2019-05-10T18:40:15.101Z,50.40
2019-05-10T18:41:48.096Z,51.10
2019-05-10T18:43:20.646Z,51.10
2019-05-10T18:44:54.239Z,51.20
2019-05-10T18:46:26.864Z,51.30
2019-05-10T18:47:59.235Z,51.40
2019-05-10T18:49:31.695Z,51.50
2019-05-10T18:51:04.130Z,51.50
2019-05-10T18:52:36.538Z,51.50
2019-05-10T18:54:09.023Z,51.60
2019-05-10T18:55:41.381Z,51.60
2019-05-10T18:57:18.952Z,51.70
2019-05-10T18:58:47.821Z,51.80
2019-05-10T19:00:22.920Z,51.90
2019-05-10T19:01:54.289Z,52.00
2019-05-10T19:03:27.941Z,52.00
2019-05-10T19:05:00.762Z,52.00
2019-05-10T19:06:33.120Z,52.20
2019-05-10T19:08:06.078Z,52.20
2019-05-10T19:09:38.980Z,52.20
2019-05-10T19:11:11.412Z,52.30
2019-05-10T19:12:44.084Z,52.30
2019-05-10T19:14:16.703Z,52.40
2019-05-10T19:15:52.851Z,52.60
2019-05-10T19:17:23.158Z,52.60
2019-05-10T19:18:55.924Z,52.70
2019-05-10T19:20:29.603Z,52.80
2019-05-10T19:22:02.967Z,52.80
2019-05-10T19:23:36.447Z,53.10
2019-05-10T19:25:11.821Z,53.10
2019-05-10T19:26:42.879Z,53.20
2019-05-10T19:28:15.330Z,53.40
2019-05-10T19:29:48.119Z,53.40
2019-05-10T19:31:20.609Z,53.50
2019-05-10T19:32:56.308Z,53.50
2019-05-10T19:34:27.072Z,53.50
2019-05-10T19:35:59.488Z,53.60
2019-05-10T19:37:34.545Z,53.60
2019-05-10T19:39:05.960Z,53.60
2019-05-10T19:40:38.375Z,53.60
2019-05-10T19:42:10.780Z,53.70
2019-05-10T19:43:43.132Z,53.80
2019-05-10T19:45:19.360Z,53.80
2019-05-10T19:46:49.662Z,53.80
2019-05-10T19:48:22.154Z,53.90
2019-05-10T19:49:57.489Z,54.00
2019-05-10T19:51:29.924Z,53.90
2019-05-10T19:53:03.897Z,53.80
2019-05-10T19:54:36.447Z,53.90
2019-05-10T19:56:08.923Z,53.70
2019-05-10T19:57:41.295Z,53.70
2019-05-10T19:59:13.771Z,53.70
2019-05-10T20:00:46.199Z,53.60
2019-05-10T20:02:18.685Z,53.70